Time,TemperatureF,DewpointF,PressureIn,WindDirection,WindDirectionDegrees,WindSpeedMPH,WindSpeedGustMPH,Humidity,HourlyPrecipIn,Conditions,Clouds,dailyrainin,SolarRadiationWatts/m^2,SoftwareType,DateUTC
2013-11-02 00:00:00,45.0,44.0,-100.00,WSW,247,0.0,-999.0,97,-99.99,,,-99.99,0.000000,,2013-11-02 04:00:00,
2013-11-02 00:44:00,45.0,44.0,-100.00,WSW,247,0.0,-999.0,97,-99.99,,,-99.99,0.000000,,2013-11-02 04:44:00,
2013-11-02 00:54:00,45.0,44.0,-100.00,WSW,247,0.0,-999.0,97,-99.99,,,-99.99,0.000000,,2013-11-02 04:54:00,
2013-11-02 01:00:00,45.0,44.0,-100.00,West,270,0.0,-999.0,97,0.02,,,-99.99,0.000000,,2013-11-02 05:00:00,
2013-11-02 01:42:00,45.0,44.0,-100.00,West,270,0.0,-999.0,97,0.02,,,-99.99,0.000000,,2013-11-02 05:42:00,
2013-11-02 01:52:00,45.0,44.0,-100.00,West,270,0.0,-999.0,97,0.02,,,-99.99,0.000000,,2013-11-02 05:52:00,
2013-11-02 02:00:00,45.0,44.0,-100.00,West,270,0.0,-999.0,97,-99.99,,,-99.99,0.000000,,2013-11-02 06:00:00,
2013-11-02 02:43:00,45.0,44.0,-100.00,West,270,0.0,-999.0,97,-99.99,,,-99.99,0.000000,,2013-11-02 06:43:00,
2013-11-02 02:52:00,45.0,44.0,-100.00,West,270,0.0,-999.0,97,-99.99,,,-99.99,0.000000,,2013-11-02 06:52:00,
2013-11-02 03:00:00,44.0,44.0,-100.00,WSW,247,0.0,-999.0,97,-99.99,,,-99.99,0.000000,,2013-11-02 07:00:00,
2013-11-02 03:42:00,44.0,44.0,-100.00,WSW,247,0.0,-999.0,97,-99.99,,,-99.99,0.000000,,2013-11-02 07:42:00,
2013-11-02 03:52:00,44.0,44.0,-100.00,WSW,247,0.0,-999.0,97,-99.99,,,-99.99,0.000000,,2013-11-02 07:52:00,
2013-11-02 04:00:00,44.0,43.0,-100.00,WSW,247,0.0,-999.0,97,0.01,,,-99.99,0.000000,,2013-11-02 08:00:00,
2013-11-02 04:42:00,44.0,43.0,-100.00,WSW,247,0.0,-999.0,97,0.01,,,-99.99,0.000000,,2013-11-02 08:42:00,
2013-11-02 04:52:00,44.0,43.0,-100.00,WSW,247,0.0,-999.0,97,0.01,,,-99.99,0.000000,,2013-11-02 08:52:00,
2013-11-02 05:00:00,44.0,44.0,-100.00,WSW,247,0.0,-999.0,97,-99.99,,,-99.99,0.000000,,2013-11-02 09:00:00,
2013-11-02 05:43:00,44.0,44.0,-100.00,WSW,247,0.0,-999.0,97,-99.99,,,-99.99,0.000000,,2013-11-02 09:43:00,
2013-11-02 05:53:00,44.0,44.0,-100.00,WSW,247,0.0,-999.0,97,-99.99,,,-99.99,0.000000,,2013-11-02 09:53:00,
2013-11-02 06:00:00,44.0,43.0,-100.00,WSW,247,0.0,-999.0,97,-99.99,,,-99.99,0.000000,,2013-11-02 10:00:00,
2013-11-02 06:43:00,44.0,43.0,-100.00,WSW,247,0.0,-999.0,97,-99.99,,,-99.99,0.000000,,2013-11-02 10:43:00,
2013-11-02 06:53:00,44.0,43.0,-100.00,WSW,247,0.0,-999.0,97,-99.99,,,-99.99,0.000000,,2013-11-02 10:53:00,
2013-11-02 07:00:00,44.0,43.0,-100.00,WSW,247,0.0,-999.0,95,-99.99,,,-99.99,0.000000,,2013-11-02 11:00:00,
2013-11-02 07:42:00,44.0,43.0,-100.00,WSW,247,0.0,-999.0,95,-99.99,,,-99.99,0.000000,,2013-11-02 11:42:00,
2013-11-02 07:52:00,44.0,43.0,-100.00,WSW,247,0.0,-999.0,95,-99.99,,,-99.99,0.000000,,2013-11-02 11:52:00,
2013-11-02 08:00:00,44.0,42.0,-100.00,WSW,247,0.0,-999.0,94,-99.99,,,-99.99,0.000000,,2013-11-02 12:00:00,
2013-11-02 08:42:00,44.0,42.0,-100.00,WSW,247,0.0,-999.0,94,-99.99,,,-99.99,0.000000,,2013-11-02 12:42:00,
2013-11-02 08:52:00,44.0,42.0,-100.00,WSW,247,0.0,-999.0,94,-99.99,,,-99.99,0.000000,,2013-11-02 12:52:00,
2013-11-02 09:00:00,44.0,42.0,-100.00,WSW,247,0.0,-999.0,95,-99.99,,,-99.99,3.480000,,2013-11-02 13:00:00,
2013-11-02 09:42:00,44.0,42.0,-100.00,WSW,247,0.0,-999.0,95,-99.99,,,-99.99,3.480000,,2013-11-02 13:42:00,
2013-11-02 09:52:00,44.0,42.0,-100.00,WSW,247,0.0,-999.0,95,-99.99,,,-99.99,3.480000,,2013-11-02 13:52:00,
2013-11-02 10:00:00,44.0,43.0,-100.00,West,270,0.0,-999.0,96,0.01,,,-99.99,45.240002,,2013-11-02 14:00:00,
2013-11-02 10:42:00,44.0,43.0,-100.00,West,270,0.0,-999.0,96,0.01,,,-99.99,45.240002,,2013-11-02 14:42:00,
2013-11-02 10:52:00,44.0,43.0,-100.00,West,270,0.0,-999.0,96,0.01,,,-99.99,45.240002,,2013-11-02 14:52:00,
2013-11-02 11:00:00,45.0,43.0,-100.00,West,270,1.0,-999.0,94,-99.99,,,-99.99,47.560001,,2013-11-02 15:00:00,
2013-11-02 11:43:00,45.0,43.0,-100.00,West,270,1.0,-999.0,94,-99.99,,,-99.99,47.560001,,2013-11-02 15:43:00,
2013-11-02 11:53:00,45.0,43.0,-100.00,West,270,1.0,-999.0,94,-99.99,,,-99.99,47.560001,,2013-11-02 15:53:00,
2013-11-02 12:00:00,44.0,42.0,-100.00,SSE,157,1.0,-999.0,90,-99.99,,,-99.99,170.520004,,2013-11-02 16:00:00,
2013-11-02 12:43:00,44.0,42.0,-100.00,SSE,157,1.0,-999.0,90,-99.99,,,-99.99,170.520004,,2013-11-02 16:43:00,
2013-11-02 12:54:00,44.0,42.0,-100.00,SSE,157,1.0,-999.0,90,-99.99,,,-99.99,170.520004,,2013-11-02 16:54:00,
2013-11-02 13:00:00,46.0,42.0,-100.00,SSW,202,0.0,-999.0,84,-99.99,,,-99.99,178.639999,,2013-11-02 17:00:00,
2013-11-02 13:43:00,46.0,42.0,-100.00,SSW,202,0.0,-999.0,84,-99.99,,,-99.99,178.639999,,2013-11-02 17:43:00,
2013-11-02 13:53:00,46.0,42.0,-100.00,SSW,202,0.0,-999.0,84,-99.99,,,-99.99,178.639999,,2013-11-02 17:53:00,
2013-11-02 14:00:00,47.0,41.0,-100.00,WNW,292,0.0,-999.0,78,-99.99,,,-99.99,219.240005,,2013-11-02 18:00:00,
2013-11-02 14:42:00,47.0,41.0,-100.00,WNW,292,0.0,-999.0,78,-99.99,,,-99.99,219.240005,,2013-11-02 18:42:00,
2013-11-02 14:53:00,47.0,41.0,-100.00,WNW,292,0.0,-999.0,78,-99.99,,,-99.99,219.240005,,2013-11-02 18:53:00,
2013-11-02 15:00:00,48.0,40.0,-100.00,WNW,292,0.0,-999.0,74,-99.99,,,-99.99,165.880005,,2013-11-02 19:00:00,
2013-11-02 15:42:00,48.0,40.0,-100.00,WNW,292,0.0,-999.0,74,-99.99,,,-99.99,165.880005,,2013-11-02 19:42:00,
2013-11-02 15:52:00,48.0,40.0,-100.00,WNW,292,0.0,-999.0,74,-99.99,,,-99.99,165.880005,,2013-11-02 19:52:00,
2013-11-02 16:00:00,47.0,40.0,-100.00,WNW,292,0.0,-999.0,77,-99.99,,,-99.99,170.520004,,2013-11-02 20:00:00,
2013-11-02 16:43:00,47.0,40.0,-100.00,WNW,292,0.0,-999.0,77,-99.99,,,-99.99,170.520004,,2013-11-02 20:43:00,
2013-11-02 16:53:00,47.0,40.0,-100.00,WNW,292,0.0,-999.0,77,-99.99,,,-99.99,170.520004,,2013-11-02 20:53:00,
2013-11-02 17:00:00,48.0,39.0,-100.00,WNW,292,1.0,-999.0,72,-99.99,,,-99.99,170.520004,,2013-11-02 21:00:00,
2013-11-02 17:44:00,48.0,39.0,-100.00,WNW,292,1.0,-999.0,72,-99.99,,,-99.99,170.520004,,2013-11-02 21:44:00,
2013-11-02 17:54:00,48.0,39.0,-100.00,WNW,292,1.0,-999.0,72,-99.99,,,-99.99,170.520004,,2013-11-02 21:54:00,
2013-11-02 18:00:00,47.0,39.0,-100.00,WNW,292,0.0,-999.0,75,-99.99,,,-99.99,92.800003,,2013-11-02 22:00:00,
2013-11-02 18:44:00,47.0,39.0,-100.00,WNW,292,0.0,-999.0,75,-99.99,,,-99.99,92.800003,,2013-11-02 22:44:00,
2013-11-02 18:54:00,47.0,39.0,-100.00,WNW,292,0.0,-999.0,75,-99.99,,,-99.99,92.800003,,2013-11-02 22:54:00,
2013-11-02 19:00:00,44.0,38.0,-100.00,WNW,292,0.0,-999.0,78,-99.99,,,-99.99,8.120000,,2013-11-02 23:00:00,
2013-11-02 19:42:00,44.0,38.0,-100.00,WNW,292,0.0,-999.0,78,-99.99,,,-99.99,8.120000,,2013-11-02 23:42:00,
2013-11-02 19:52:00,44.0,38.0,-100.00,WNW,292,0.0,-999.0,78,-99.99,,,-99.99,8.120000,,2013-11-02 23:52:00,
2013-11-02 20:00:00,43.0,38.0,-100.00,West,270,0.0,-999.0,83,-99.99,,,-99.99,0.000000,,2013-11-03 00:00:00,
2013-11-02 20:42:00,43.0,38.0,-100.00,West,270,0.0,-999.0,83,-99.99,,,-99.99,0.000000,,2013-11-03 00:42:00,
2013-11-02 20:52:00,43.0,38.0,-100.00,West,270,0.0,-999.0,83,-99.99,,,-99.99,0.000000,,2013-11-03 00:52:00,
2013-11-02 21:00:00,43.0,40.0,-100.00,West,270,0.0,-999.0,87,-99.99,,,-99.99,0.000000,,2013-11-03 01:00:00,
2013-11-02 21:42:00,43.0,40.0,-100.00,West,270,0.0,-999.0,87,-99.99,,,-99.99,0.000000,,2013-11-03 01:42:00,
2013-11-02 21:52:00,43.0,40.0,-100.00,West,270,0.0,-999.0,87,-99.99,,,-99.99,0.000000,,2013-11-03 01:52:00,
2013-11-02 22:00:00,42.0,40.0,-100.00,WNW,292,0.0,-999.0,91,0.01,,,-99.99,0.000000,,2013-11-03 02:00:00,
2013-11-02 22:43:00,42.0,40.0,-100.00,WNW,292,0.0,-999.0,91,0.01,,,-99.99,0.000000,,2013-11-03 02:43:00,
2013-11-02 22:52:00,42.0,40.0,-100.00,WNW,292,0.0,-999.0,91,0.01,,,-99.99,0.000000,,2013-11-03 02:52:00,
2013-11-02 23:00:00,-999.0,-99.9,-100.00,WNW,292,0.0,-999.0,-999,-99.99,,,-99.99,,,2013-11-03 03:00:00,
2013-11-02 23:45:00,42.0,40.0,-100.00,WNW,292,0.0,-999.0,94,0.01,,,-99.99,0.000000,,2013-11-03 03:45:00,
2013-11-02 23:54:00,42.0,40.0,-100.00,WNW,292,0.0,-999.0,94,0.01,,,-99.99,0.000000,,2013-11-03 03:54:00,